Time;durP1;ratioP1;P1;durP2;ratioP2;P2;SDS_P1;SDS_P2;PMS_P1;PMS_P2;Temp;Humidity;BMP_temperature;BMP_pressure;BME280_temperature;BME280_humidity;BME280_pressure;Samples;Min_cycle;Max_cycle;Signal;HPM_P1;HPM_P2
2024/01/05 00:02:37;;;;;;;12.70;6.43;;;;;;;2.37;100.00;100163.91;5010270;28;20045;-72
2024/01/05 00:05:23;;;;;;;14.02;6.50;;;;;;;2.38;100.00;100156.91;5011116;28;20052;-72
2024/01/05 00:08:09;;;;;;;15.55;6.40;;;;;;;2.36;100.00;100148.25;4996486;28;20045;-72
2024/01/05 00:10:55;;;;;;;13.43;6.40;;;;;;;2.34;100.00;100150.88;5013148;28;20079;-72
2024/01/05 00:13:42;;;;;;;13.90;6.60;;;;;;;2.31;100.00;100143.13;5011000;28;20519;-72
2024/01/05 00:16:27;;;;;;;12.80;6.28;;;;;;;2.30;100.00;100136.19;5024444;28;20052;-72
2024/01/05 00:19:13;;;;;;;15.70;6.78;;;;;;;2.29;100.00;100127.47;5014200;28;20046;-72
2024/01/05 00:21:59;;;;;;;14.65;7.15;;;;;;;2.28;100.00;100120.53;5010007;28;20152;-72
2024/01/05 00:24:44;;;;;;;14.90;7.05;;;;;;;2.30;100.00;100125.75;5013900;28;20045;-72
2024/01/05 00:27:30;;;;;;;11.60;6.47;;;;;;;2.27;100.00;100115.34;5011131;28;20049;-73
2024/01/05 00:30:16;;;;;;;17.17;6.40;;;;;;;2.24;100.00;100118.88;5012932;28;20060;-72
2024/01/05 00:33:02;;;;;;;15.13;6.43;;;;;;;2.24;100.00;100102.38;5011733;28;20052;-72
2024/01/05 00:35:48;;;;;;;13.73;6.80;;;;;;;2.20;100.00;100101.56;5013402;28;20042;-72
2024/01/05 00:38:33;;;;;;;11.88;5.68;;;;;;;2.19;100.00;100097.25;5012954;28;20489;-72
2024/01/05 00:41:22;;;;;;;14.90;6.78;;;;;;;2.19;100.00;100097.25;5011474;28;20126;-72
2024/01/05 00:44:07;;;;;;;16.30;7.50;;;;;;;2.18;100.00;100092.91;5011041;28;20049;-72
2024/01/05 00:46:54;;;;;;;15.52;6.60;;;;;;;2.18;100.00;100085.06;5013002;28;20102;-72
2024/01/05 00:49:39;;;;;;;13.98;6.63;;;;;;;2.16;100.00;100079.03;5012495;28;20664;-72
2024/01/05 00:52:25;;;;;;;13.68;7.22;;;;;;;2.14;100.00;100078.22;5011754;28;20037;-72
2024/01/05 00:55:11;;;;;;;14.50;6.95;;;;;;;2.12;100.00;100070.41;5011741;28;21052;-72
2024/01/05 00:57:57;;;;;;;14.23;7.53;;;;;;;2.12;100.00;100066.94;5011594;28;20040;-72
2024/01/05 01:00:42;;;;;;;13.13;6.72;;;;;;;2.11;100.00;100067.81;5010984;28;20050;-73
2024/01/05 01:03:28;;;;;;;15.77;7.15;;;;;;;2.09;100.00;100051.31;5008993;28;20061;-72
2024/01/05 01:06:14;;;;;;;16.77;7.80;;;;;;;2.09;100.00;100048.72;5012342;28;20044;-72
2024/01/05 01:08:59;;;;;;;16.15;7.63;;;;;;;2.08;100.00;100044.41;5012164;28;20126;-72
2024/01/05 01:11:49;;;;;;;15.23;7.60;;;;;;;2.07;100.00;100046.13;5012881;28;20049;-72
2024/01/05 01:14:35;;;;;;;14.98;8.18;;;;;;;2.06;100.00;100040.97;5011796;28;20049;-72
2024/01/05 01:17:22;;;;;;;11.77;7.28;;;;;;;2.07;100.00;100033.06;5011670;28;20516;-72
2024/01/05 01:20:08;;;;;;;15.18;8.18;;;;;;;2.07;100.00;100034.84;5023805;28;20056;-72
2024/01/05 01:22:54;;;;;;;13.60;7.38;;;;;;;2.05;100.00;100034.88;5012666;28;20050;-72
2024/01/05 01:25:40;;;;;;;14.57;7.60;;;;;;;2.05;100.00;100020.97;5013450;28;20126;-72
2024/01/05 01:28:26;;;;;;;13.88;7.22;;;;;;;2.05;100.00;100020.97;5013294;28;20038;-72
2024/01/05 01:31:12;;;;;;;13.48;7.10;;;;;;;2.05;100.00;100010.53;5022543;28;20072;-72
2024/01/05 01:33:58;;;;;;;15.10;7.05;;;;;;;2.03;100.00;100000.94;5010779;28;20049;-72
2024/01/05 01:36:44;;;;;;;13.25;6.90;;;;;;;2.03;100.00;99997.50;5013400;28;20052;-72
2024/01/05 01:39:30;;;;;;;16.92;7.60;;;;;;;2.02;100.00;99991.41;5009468;28;20048;-72
2024/01/05 01:42:19;;;;;;;13.48;7.35;;;;;;;2.01;100.00;99988.81;5012079;28;20095;-71
2024/01/05 01:45:05;;;;;;;13.90;6.90;;;;;;;2.00;100.00;99993.22;5021380;28;20077;-73
2024/01/05 01:47:51;;;;;;;17.38;7.25;;;;;;;2.00;100.00;99990.59;5049753;28;20114;-72
2024/01/05 01:50:37;;;;;;;16.45;6.68;;;;;;;2.01;100.00;99981.00;5049783;28;20040;-71
2024/01/05 01:53:24;;;;;;;12.50;6.50;;;;;;;1.99;100.00;99983.66;5047907;28;20052;-72
2024/01/05 01:56:13;;;;;;;12.68;6.97;;;;;;;2.00;100.00;99980.16;5050084;28;20053;-71
2024/01/05 01:58:59;;;;;;;17.33;7.10;;;;;;;2.00;100.00;99980.16;5050597;28;20056;-72
2024/01/05 02:01:46;;;;;;;11.80;6.35;;;;;;;2.00;100.00;99980.16;5037306;28;20075;-71
2024/01/05 02:04:33;;;;;;;18.70;7.32;;;;;;;2.00;100.00;99979.28;5033340;28;20678;-72
2024/01/05 02:07:18;;;;;;;13.30;7.20;;;;;;;1.99;100.00;99961.91;5049162;28;20078;-72
2024/01/05 02:10:05;;;;;;;14.57;6.90;;;;;;;1.99;100.00;99957.56;5049513;28;20052;-72
2024/01/05 02:12:51;;;;;;;13.48;6.72;;;;;;;1.99;100.00;99952.34;5050334;28;20532;-72
2024/01/05 02:15:37;;;;;;;17.50;7.13;;;;;;;2.00;100.00;99956.66;5055468;28;20048;-72
2024/01/05 02:18:22;;;;;;;13.35;7.00;;;;;;;2.00;100.00;99946.22;5039029;28;21438;-72
2024/01/05 02:21:09;;;;;;;16.30;6.97;;;;;;;1.98;100.00;99949.75;5050277;28;20083;-72
2024/01/05 02:23:55;;;;;;;18.75;7.93;;;;;;;1.98;100.00;99940.19;5039659;28;20111;-72
2024/01/05 02:26:41;;;;;;;20.25;7.75;;;;;;;1.98;100.00;99932.34;5033243;28;20052;-72
2024/01/05 02:29:27;;;;;;;13.40;6.95;;;;;;;1.99;100.00;99927.97;5048559;28;20070;-72
2024/01/05 02:32:14;;;;;;;18.20;7.88;;;;;;;1.97;100.00;99922.75;5049819;28;20072;-71
2024/01/05 02:35:00;;;;;;;15.27;7.20;;;;;;;2.01;100.00;99919.19;5038165;28;20040;-72
2024/01/05 02:37:45;;;;;;;14.45;7.38;;;;;;;2.03;100.00;99916.56;5048986;28;20438;-72
2024/01/05 02:40:32;;;;;;;19.52;7.65;;;;;;;2.00;100.00;99912.25;5050204;28;20046;-72
2024/01/05 02:43:18;;;;;;;17.88;8.25;;;;;;;2.01;100.00;99908.75;5049813;28;20063;-72
2024/01/05 02:46:04;;;;;;;14.90;7.50;;;;;;;1.99;100.00;99894.03;5019793;28;20099;-72
2024/01/05 02:48:49;;;;;;;16.58;7.53;;;;;;;1.98;100.00;99880.13;5011766;28;20080;-72
2024/01/05 02:51:35;;;;;;;20.58;8.57;;;;;;;2.00;100.00;99880.06;5009616;28;20037;-72
2024/01/05 02:54:21;;;;;;;14.77;7.28;;;;;;;1.97;100.00;99881.00;5009983;28;20041;-72
2024/01/05 02:57:07;;;;;;;19.08;7.82;;;;;;;2.00;100.00;99870.50;5006777;28;20791;-72
2024/01/05 02:59:53;;;;;;;18.50;8.02;;;;;;;2.00;100.00;99870.50;5010092;28;20064;-73
2024/01/05 03:02:38;;;;;;;16.90;7.43;;;;;;;2.02;100.00;99867.84;5009221;28;20054;-72
2024/01/05 03:05:24;;;;;;;19.02;7.78;;;;;;;1.98;100.00;99868.81;5003953;28;20507;-71
2024/01/05 03:08:10;;;;;;;19.20;7.65;;;;;;;1.97;100.00;99854.03;4980558;28;20042;-72
2024/01/05 03:10:56;;;;;;;14.48;7.35;;;;;;;1.99;100.00;99853.13;5009430;28;20025;-72
2024/01/05 03:13:42;;;;;;;17.70;8.27;;;;;;;1.98;100.00;99853.13;5008894;28;20045;-72
2024/01/05 03:16:27;;;;;;;14.18;7.07;;;;;;;1.95;100.00;99848.84;5010868;28;22010;-72
2024/01/05 03:19:13;;;;;;;13.60;7.30;;;;;;;1.94;100.00;99841.91;5009094;28;20045;-72
2024/01/05 03:21:59;;;;;;;15.98;7.20;;;;;;;1.94;100.00;99834.09;5008696;28;20132;-72
2024/01/05 03:24:45;;;;;;;15.27;6.82;;;;;;;1.94;100.00;99841.06;5021026;28;20060;-71
2024/01/05 03:27:30;;;;;;;14.40;6.60;;;;;;;1.95;100.00;99824.53;5007746;28;20140;-72
2024/01/05 03:30:16;;;;;;;13.80;6.93;;;;;;;1.94;100.00;99828.88;5008989;28;20606;-72
2024/01/05 03:33:02;;;;;;;15.13;6.82;;;;;;;1.94;100.00;99817.56;5008973;28;20077;-72
2024/01/05 03:35:48;;;;;;;13.05;6.50;;;;;;;1.94;100.00;99821.03;5005076;28;20076;-71
2024/01/05 03:38:33;;;;;;;11.80;6.22;;;;;;;1.95;100.00;99825.34;5009213;28;20061;-71
2024/01/05 03:41:19;;;;;;;15.07;6.22;;;;;;;1.95;100.00;99809.69;5010862;28;20118;-71
2024/01/05 03:44:05;;;;;;;14.02;6.57;;;;;;;1.92;100.00;99808.91;5006812;28;20088;-72
2024/01/05 03:46:51;;;;;;;15.15;6.65;;;;;;;1.91;100.00;99815.91;5039855;28;20049;-72
2024/01/05 03:49:36;;;;;;;10.18;5.85;;;;;;;1.90;100.00;99801.97;5046912;28;20969;-72
2024/01/05 03:52:22;;;;;;;11.40;5.47;;;;;;;1.89;100.00;99797.66;5047685;28;21097;-72
2024/01/05 03:55:08;;;;;;;11.55;5.43;;;;;;;1.89;100.00;99795.06;5046664;28;20189;-71
2024/01/05 03:57:54;;;;;;;14.95;6.10;;;;;;;1.89;100.00;99787.22;5047819;28;20040;-72
2024/01/05 04:00:39;;;;;;;10.63;5.95;;;;;;;1.90;100.00;99786.31;5045129;28;20052;-72
2024/01/05 04:03:25;;;;;;;11.45;6.15;;;;;;;1.90;100.00;99775.00;5033954;28;20049;-72
2024/01/05 04:06:18;;;;;;;13.20;6.35;;;;;;;1.88;100.00;99767.25;5033413;28;20048;-71
2024/01/05 04:09:04;;;;;;;11.82;5.97;;;;;;;1.90;100.00;99764.56;5047478;28;20547;-71
2024/01/05 04:11:51;;;;;;;11.60;5.88;;;;;;;1.91;100.00;99755.88;5046751;28;20419;-72
2024/01/05 04:14:37;;;;;;;13.18;5.60;;;;;;;1.88;100.00;99751.56;5029681;28;20068;-72
2024/01/05 04:17:23;;;;;;;14.50;6.47;;;;;;;1.90;100.00;99748.91;5034428;28;20076;-72
2024/01/05 04:20:09;;;;;;;10.80;5.65;;;;;;;1.92;100.00;99749.75;5054166;28;21397;-72
2024/01/05 04:22:55;;;;;;;10.52;5.68;;;;;;;1.91;100.00;99745.41;5030582;28;20110;-72
2024/01/05 04:25:41;;;;;;;11.90;6.43;;;;;;;1.90;100.00;99734.13;5059680;28;20044;-72
2024/01/05 04:28:26;;;;;;;13.43;5.82;;;;;;;1.90;100.00;99728.03;5046237;28;20079;-72
2024/01/05 04:31:18;;;;;;;11.88;6.03;;;;;;;1.92;100.00;99726.25;5059468;28;20076;-73
2024/01/05 04:34:03;;;;;;;15.20;5.80;;;;;;;1.92;100.00;99723.63;5030391;28;20062;-72
2024/01/05 04:36:49;;;;;;;12.88;5.68;;;;;;;1.94;100.00;99714.00;5061252;28;20052;-71
2024/01/05 04:39:35;;;;;;;14.98;6.10;;;;;;;1.94;100.00;99714.00;5063961;28;20048;-72
2024/01/05 04:42:21;;;;;;;14.73;6.18;;;;;;;1.95;100.00;99715.72;5062947;28;20040;-72
2024/01/05 04:45:07;;;;;;;14.60;5.75;;;;;;;1.94;100.00;99708.78;5058852;28;20048;-72
2024/01/05 04:47:53;;;;;;;14.88;5.65;;;;;;;1.95;100.00;99713.09;5059456;28;20502;-72
2024/01/05 04:50:39;;;;;;;13.32;6.70;;;;;;;1.96;100.00;99709.59;5059369;28;20044;-72
2024/01/05 04:53:25;;;;;;;12.55;6.05;;;;;;;1.96;100.00;99717.41;5060105;28;20037;-72
2024/01/05 04:56:10;;;;;;;13.25;6.05;;;;;;;1.98;100.00;99699.09;5058984;28;20125;-72
2024/01/05 04:58:56;;;;;;;12.18;5.38;;;;;;;1.99;100.00;99699.06;5060601;28;20106;-72
2024/01/05 05:01:42;;;;;;;16.17;6.53;;;;;;;2.01;100.00;99702.47;5047554;28;20048;-72
2024/01/05 05:04:27;;;;;;;10.93;6.10;;;;;;;2.01;100.00;99704.22;5048181;28;20060;-72
2024/01/05 05:07:14;;;;;;;13.15;5.72;;;;;;;2.00;100.00;99692.94;5058539;28;20041;-72
2024/01/05 05:10:00;;;;;;;12.27;6.30;;;;;;;2.02;100.00;99698.13;5059343;28;20048;-72
2024/01/05 05:12:46;;;;;;;14.50;6.60;;;;;;;2.03;100.00;99692.84;5062489;28;20051;-73
2024/01/05 05:15:31;;;;;;;15.60;6.75;;;;;;;2.06;100.00;99691.91;5055438;28;20251;-72
2024/01/05 05:18:17;;;;;;;12.82;5.70;;;;;;;2.06;100.00;99691.91;5045972;28;20056;-72
2024/01/05 05:21:04;;;;;;;13.20;5.10;;;;;;;2.06;100.00;99691.06;5058555;28;20083;-72
2024/01/05 05:23:49;;;;;;;15.15;6.25;;;;;;;2.07;100.00;99683.16;5056142;28;20760;-72
2024/01/05 05:26:35;;;;;;;11.05;5.25;;;;;;;2.09;100.00;99677.91;5059302;28;20502;-72
2024/01/05 05:29:21;;;;;;;12.38;5.78;;;;;;;2.09;100.00;99675.28;5057567;28;20054;-72
2024/01/05 05:32:06;;;;;;;16.73;6.55;;;;;;;2.10;100.00;99675.25;5060010;28;20148;-72
2024/01/05 05:34:52;;;;;;;15.13;6.43;;;;;;;2.11;100.00;99676.97;5058189;28;20056;-72
2024/01/05 05:37:38;;;;;;;14.75;5.90;;;;;;;2.11;100.00;99668.25;5047580;28;20094;-72
2024/01/05 05:40:23;;;;;;;15.13;6.18;;;;;;;2.12;100.00;99670.84;5058248;28;20044;-72
2024/01/05 05:43:09;;;;;;;13.93;6.13;;;;;;;2.13;100.00;99671.72;5048519;28;20408;-72
2024/01/05 05:45:55;;;;;;;13.75;5.95;;;;;;;2.12;100.00;99664.78;5045512;28;20176;-72
2024/01/05 05:48:41;;;;;;;14.35;6.75;;;;;;;2.16;100.00;99658.53;5058460;28;20049;-71
2024/01/05 05:51:26;;;;;;;15.10;7.32;;;;;;;2.17;100.00;99653.28;5055275;28;20052;-72
2024/01/05 05:54:12;;;;;;;13.98;7.03;;;;;;;2.20;100.00;99646.25;5059082;28;20052;-72
2024/01/05 05:56:58;;;;;;;17.50;6.47;;;;;;;2.19;100.00;99642.81;5059804;28;20041;-72
2024/01/05 05:59:44;;;;;;;15.57;7.03;;;;;;;2.21;100.00;99653.19;5045328;28;20124;-73
2024/01/05 06:02:29;;;;;;;18.40;7.45;;;;;;;2.20;100.00;99652.34;5058199;28;20043;-72
2024/01/05 06:05:15;;;;;;;12.48;6.47;;;;;;;2.20;100.00;99652.34;5058561;28;20045;-72
2024/01/05 06:08:01;;;;;;;16.50;7.05;;;;;;;2.22;100.00;99657.53;5056937;28;20166;-72
2024/01/05 06:10:50;;;;;;;15.52;7.10;;;;;;;2.21;100.00;99656.66;5057771;28;20040;-72
2024/01/05 06:13:35;;;;;;;17.05;7.13;;;;;;;2.22;100.00;99641.84;5042723;28;20048;-72
2024/01/05 06:16:21;;;;;;;17.40;6.82;;;;;;;2.24;100.00;99646.09;5054579;28;20045;-72
2024/01/05 06:19:09;;;;;;;14.07;6.82;;;;;;;2.26;100.00;99652.16;5054636;28;20038;-72
2024/01/05 06:21:57;;;;;;;16.40;7.10;;;;;;;2.27;100.00;99638.19;5056613;28;20587;-72
2024/01/05 06:24:44;;;;;;;15.50;6.68;;;;;;;2.29;100.00;99638.16;5022749;28;20040;-72
2024/01/05 06:27:30;;;;;;;13.50;6.65;;;;;;;2.31;100.00;99638.94;5055750;28;20061;-72
2024/01/05 06:30:19;;;;;;;15.45;7.00;;;;;;;2.33;100.00;99641.53;5055839;28;20068;-72
2024/01/05 06:33:06;;;;;;;13.52;6.22;;;;;;;2.31;100.00;99646.78;5046225;28;20386;-72
2024/01/05 06:35:52;;;;;;;15.90;7.22;;;;;;;2.34;100.00;99638.00;5044050;28;20043;-72
2024/01/05 06:38:38;;;;;;;12.95;6.45;;;;;;;2.34;100.00;99645.84;5044910;28;20053;-72
2024/01/05 06:41:30;;;;;;;15.40;6.72;;;;;;;2.36;100.00;99636.19;5062675;28;20048;-73
2024/01/05 06:44:16;;;;;;;16.58;7.05;;;;;;;2.37;100.00;99635.28;5057021;28;20753;-73
2024/01/05 06:47:02;;;;;;;14.95;6.43;;;;;;;2.37;100.00;99628.31;5062794;28;20079;-72
2024/01/05 06:49:47;;;;;;;18.92;6.88;;;;;;;2.40;100.00;99633.44;5060941;28;20478;-72
2024/01/05 06:52:34;;;;;;;17.00;7.72;;;;;;;2.42;100.00;99630.78;5063292;28;20048;-73
2024/01/05 06:55:20;;;;;;;15.95;6.45;;;;;;;2.44;100.00;99636.81;5052726;28;20931;-72
2024/01/05 06:58:05;;;;;;;17.52;7.38;;;;;;;2.44;100.00;99619.38;5049993;28;20636;-72
2024/01/05 07:00:51;;;;;;;16.27;6.93;;;;;;;2.46;100.00;99621.97;5063729;28;20105;-72
2024/01/05 07:03:37;;;;;;;18.23;7.70;;;;;;;2.48;100.00;99624.50;5045987;28;20071;-72
2024/01/05 07:06:23;;;;;;;18.70;7.90;;;;;;;2.47;100.00;99618.44;5046095;28;20123;-73
2024/01/05 07:09:08;;;;;;;15.60;7.55;;;;;;;2.50;100.00;99622.72;5046115;28;20120;-72
2024/01/05 07:11:54;;;;;;;17.23;6.97;;;;;;;2.49;100.00;99615.75;5056109;28;20048;-72
2024/01/05 07:14:40;;;;;;;17.35;7.90;;;;;;;2.52;100.00;99624.38;5031230;28;20047;-71
2024/01/05 07:17:26;;;;;;;21.35;8.05;;;;;;;2.52;100.00;99616.53;5055667;28;20039;-72
2024/01/05 07:20:11;;;;;;;20.05;8.27;;;;;;;2.54;100.00;99606.03;5054215;28;20137;-72
2024/01/05 07:22:57;;;;;;;18.80;8.20;;;;;;;2.54;100.00;99604.28;5057018;28;20110;-73
2024/01/05 07:25:43;;;;;;;17.63;7.97;;;;;;;2.55;100.00;99610.34;5056290;28;20041;-72
2024/01/05 07:28:29;;;;;;;19.63;8.00;;;;;;;2.57;100.00;99609.38;5054331;28;20049;-72
2024/01/05 07:31:20;;;;;;;16.95;7.57;;;;;;;2.58;100.00;99611.09;5055737;28;20040;-72
2024/01/05 07:34:07;;;;;;;19.38;8.45;;;;;;;2.61;100.00;99610.16;5056282;28;20141;-72
2024/01/05 07:36:53;;;;;;;18.23;7.80;;;;;;;2.63;100.00;99612.72;5054182;28;20040;-72
2024/01/05 07:39:39;;;;;;;20.38;8.43;;;;;;;2.64;100.00;99603.97;5053236;28;20053;-72
2024/01/05 07:42:30;;;;;;;21.20;7.95;;;;;;;2.67;100.00;99607.34;5055280;28;20119;-72
2024/01/05 07:45:16;;;;;;;21.15;8.32;;;;;;;2.67;100.00;99609.13;5043450;28;20048;-72
2024/01/05 07:48:03;;;;;;;17.33;8.43;;;;;;;2.70;100.00;99609.00;5042780;28;20052;-72
2024/01/05 07:50:49;;;;;;;22.33;8.70;;;;;;;2.69;100.00;99612.53;5054805;28;20087;-73
2024/01/05 07:53:35;;;;;;;21.23;8.20;;;;;;;2.70;100.00;99601.16;5053994;28;20044;-73
2024/01/05 07:56:21;;;;;;;16.77;8.05;;;;;;;2.72;100.00;99608.03;5057640;28;20045;-72
2024/01/05 07:59:07;;;;;;;17.67;7.90;;;;;;;2.73;100.00;99603.69;5057081;28;20060;-73
2024/01/05 08:01:53;;;;;;;20.35;8.63;;;;;;;2.75;100.00;99598.38;5051819;28;20040;-71
2024/01/05 08:04:42;;;;;;;23.25;8.25;;;;;;;2.76;100.00;99613.16;5056640;28;20048;-73
2024/01/05 08:07:28;;;;;;;17.48;8.00;;;;;;;2.78;100.00;99606.97;5043679;28;20048;-71
2024/01/05 08:10:15;;;;;;;18.17;7.85;;;;;;;2.79;100.00;99607.84;5043548;28;20415;-72
2024/01/05 08:13:03;;;;;;;17.63;7.53;;;;;;;2.80;100.00;99606.94;5055417;28;20052;-71
2024/01/05 08:15:49;;;;;;;20.90;9.10;;;;;;;2.83;100.00;99605.06;5058375;28;20043;-71
2024/01/05 08:18:38;;;;;;;19.05;7.93;;;;;;;2.85;100.00;99613.72;5058345;28;20648;-71
2024/01/05 08:21:23;;;;;;;19.00;8.27;;;;;;;2.89;100.00;99613.63;5058160;28;20040;-70
2024/01/05 08:24:09;;;;;;;23.85;8.50;;;;;;;2.89;100.00;99600.56;5057385;28;20045;-71
2024/01/05 08:26:55;;;;;;;20.23;8.25;;;;;;;2.90;100.00;99605.75;5058315;28;20051;-70
2024/01/05 08:29:41;;;;;;;18.55;8.45;;;;;;;2.94;100.00;99602.09;5048032;28;20044;-71
2024/01/05 08:32:26;;;;;;;17.70;7.95;;;;;;;2.97;100.00;99596.78;5060198;28;20114;-71
2024/01/05 08:35:12;;;;;;;21.10;8.73;;;;;;;2.97;100.00;99601.16;5060628;28;20048;-71
2024/01/05 08:38:02;;;;;;;19.75;8.85;;;;;;;3.01;100.00;99601.91;5031126;28;20083;-71
2024/01/05 08:40:50;;;;;;;18.98;8.38;;;;;;;2.99;100.00;99599.31;5039333;28;20142;-71
2024/01/05 08:43:36;;;;;;;18.58;8.40;;;;;;;3.01;100.00;99599.28;5036722;28;20104;-71
2024/01/05 08:46:22;;;;;;;19.95;8.07;;;;;;;3.03;100.00;99606.16;5058743;28;20541;-72
2024/01/05 08:49:07;;;;;;;23.30;8.95;;;;;;;3.06;100.00;99606.06;5057415;28;20052;-71
2024/01/05 08:51:54;;;;;;;22.65;10.00;;;;;;;3.07;100.00;99597.31;5053634;28;20732;-72
2024/01/05 08:54:40;;;;;;;19.42;8.95;;;;;;;3.09;100.00;99597.25;5056278;28;20041;-72
2024/01/05 08:57:26;;;;;;;22.52;10.10;;;;;;;3.12;100.00;99599.78;5040806;28;20041;-72
2024/01/05 09:00:12;;;;;;;17.58;9.02;;;;;;;3.15;100.00;99598.81;5037542;28;20961;-72
2024/01/05 09:02:57;;;;;;;18.58;8.50;;;;;;;3.17;100.00;99602.22;5044068;28;20044;-72
2024/01/05 09:05:46;;;;;;;21.98;8.25;;;;;;;3.22;100.00;99602.94;5045528;28;20136;-72
2024/01/05 09:08:32;;;;;;;17.77;8.38;;;;;;;3.24;100.00;99607.19;5056665;28;20102;-72
2024/01/05 09:11:17;;;;;;;20.58;8.35;;;;;;;3.28;100.00;99605.34;5058530;28;20127;-71
2024/01/05 09:14:03;;;;;;;22.52;8.55;;;;;;;3.29;100.00;99599.19;5055750;28;20048;-72
2024/01/05 09:16:52;;;;;;;19.58;8.18;;;;;;;3.29;100.00;99596.56;5058416;28;20069;-71
2024/01/05 09:19:37;;;;;;;19.45;7.93;;;;;;;3.32;100.00;99612.16;5046859;28;20056;-72
2024/01/05 09:22:23;;;;;;;15.05;7.78;;;;;;;3.33;100.00;99608.63;5055591;28;20048;-72
2024/01/05 09:25:09;;;;;;;16.55;7.93;;;;;;;3.37;100.00;99614.59;5057072;28;20053;-72
2024/01/05 09:27:55;;;;;;;20.23;8.63;;;;;;;3.36;100.00;99610.28;5058168;28;20483;-72
2024/01/05 09:30:41;;;;;;;19.30;8.25;;;;;;;3.36;100.00;99613.75;5055752;28;20040;-72
2024/01/05 09:33:26;;;;;;;18.65;8.43;;;;;;;3.34;100.00;99619.94;5057957;28;20059;-72
2024/01/05 09:36:12;;;;;;;18.45;7.85;;;;;;;3.33;100.00;99626.94;5055675;28;20707;-72
2024/01/05 09:38:58;;;;;;;20.45;8.15;;;;;;;3.33;100.00;99619.09;5055862;28;20052;-72
2024/01/05 09:41:47;;;;;;;20.40;8.63;;;;;;;3.34;100.00;99628.66;5059331;28;20052;-72
2024/01/05 09:44:34;;;;;;;20.23;8.98;;;;;;;3.36;100.00;99628.59;5046685;28;20037;-72
2024/01/05 09:47:21;;;;;;;18.08;9.52;;;;;;;3.37;100.00;99627.69;5046352;28;20455;-72
2024/01/05 09:50:08;;;;;;;16.73;7.57;;;;;;;3.39;100.00;99624.09;5055735;28;20128;-72
2024/01/05 09:52:59;;;;;;;18.02;8.40;;;;;;;3.44;100.00;99621.34;5039833;28;20479;-72
2024/01/05 09:55:49;;;;;;;18.58;8.30;;;;;;;3.46;100.00;99616.91;5027232;28;20442;-71
2024/01/05 09:58:35;;;;;;;20.67;8.35;;;;;;;3.47;100.00;99615.13;5047921;28;20064;-72
2024/01/05 10:01:28;;;;;;;20.75;8.52;;;;;;;3.49;100.00;99618.56;5064527;28;20467;-72
2024/01/05 10:04:13;;;;;;;20.47;8.83;;;;;;;3.50;100.00;99615.03;5048841;28;20110;-72
2024/01/05 10:07:03;;;;;;;21.98;9.20;;;;;;;3.51;100.00;99621.97;5049958;28;21005;-72
2024/01/05 10:09:51;;;;;;;18.75;9.23;;;;;;;3.52;100.00;99618.44;5059440;28;20170;-72
2024/01/05 10:12:41;;;;;;;25.48;9.73;;;;;;;3.54;100.00;99611.38;5059354;28;20146;-72
2024/01/05 10:15:28;;;;;;;22.25;8.73;;;;;;;3.55;100.00;99615.72;5061006;28;20064;-73
2024/01/05 10:18:20;;;;;;;17.85;8.23;;;;;;;3.52;100.00;99613.22;5055982;28;20047;-73
2024/01/05 10:21:10;;;;;;;20.95;9.15;;;;;;;3.52;100.00;99618.44;5045776;28;20055;-73
2024/01/05 10:23:57;;;;;;;19.13;9.00;;;;;;;3.54;100.00;99621.84;5045408;28;20676;-73
2024/01/05 10:26:43;;;;;;;17.00;7.82;;;;;;;3.58;100.00;99622.59;5055057;28;20037;-73
2024/01/05 10:29:32;;;;;;;18.42;8.27;;;;;;;3.60;100.00;99618.19;5058639;28;20194;-72
2024/01/05 10:32:19;;;;;;;16.40;7.75;;;;;;;3.61;100.00;99615.50;5055979;28;20048;-73
2024/01/05 10:35:08;;;;;;;16.60;7.40;;;;;;;3.65;100.00;99606.63;5057561;28;20036;-73
2024/01/05 10:38:03;;;;;;;16.15;7.05;;;;;;;3.69;100.00;99609.16;5057446;28;20040;-72
2024/01/05 10:40:49;;;;;;;14.88;6.57;;;;;;;3.69;100.00;99614.38;5056055;28;20040;-73
2024/01/05 10:43:35;;;;;;;17.10;8.07;;;;;;;3.69;100.00;99615.22;5059049;28;20045;-73
2024/01/05 10:46:24;;;;;;;16.92;7.72;;;;;;;3.71;100.00;99602.91;5058787;28;20054;-73
2024/01/05 10:49:12;;;;;;;15.73;7.57;;;;;;;3.75;100.00;99608.88;5055073;28;20048;-73
2024/01/05 10:51:58;;;;;;;16.38;7.68;;;;;;;3.77;100.00;99599.22;5052722;28;20072;-73
2024/01/05 10:54:45;;;;;;;14.77;6.95;;;;;;;3.81;100.00;99611.28;5039455;28;20059;-73
2024/01/05 10:57:35;;;;;;;12.60;6.22;;;;;;;3.85;100.00;99607.66;5054235;28;20055;-73
2024/01/05 11:00:24;;;;;;;13.40;6.47;;;;;;;3.89;100.00;99603.16;5044495;28;20044;-73
2024/01/05 11:03:13;;;;;;;15.43;6.90;;;;;;;3.93;100.00;99608.22;5053831;28;20032;-73
2024/01/05 11:05:59;;;;;;;13.18;6.05;;;;;;;3.97;100.00;99613.34;5055710;28;20045;-73
2024/01/05 11:09:01;;;;;;;13.48;6.38;;;;;;;3.98;100.00;99608.03;5024646;28;20044;-73
2024/01/05 11:12:21;;;;;;;17.85;6.88;;;;;;;4.00;100.00;99605.38;5039339;28;20063;-72
2024/01/05 11:15:45;;;;;;;13.77;6.97;;;;;;;4.08;100.00;99600.69;5043891;28;20677;-73
2024/01/05 11:18:53;;;;;;;13.23;5.63;;;;;;;4.12;100.00;99597.03;5038699;28;20071;-72
2024/01/05 11:21:48;;;;;;;14.15;7.38;;;;;;;4.13;100.00;99593.50;5054616;28;20048;-72
2024/01/05 11:24:35;;;;;;;15.90;7.47;;;;;;;4.10;100.00;99595.38;5038580;28;20064;-72
2024/01/05 11:27:33;;;;;;;14.52;7.53;;;;;;;4.07;100.00;99589.38;5023657;28;20037;-73
2024/01/05 11:30:41;;;;;;;14.93;7.28;;;;;;;4.08;100.00;99588.44;5035575;28;20170;-73
2024/01/05 11:33:45;;;;;;;16.13;7.38;;;;;;;4.13;100.00;99584.81;5038683;28;20149;-74
2024/01/05 11:36:49;;;;;;;14.55;7.13;;;;;;;4.13;100.00;99587.44;5046340;28;20051;-74
2024/01/05 11:39:49;;;;;;;16.27;7.00;;;;;;;4.15;100.00;99581.19;5049861;28;20161;-74
2024/01/05 11:42:34;;;;;;;15.02;7.43;;;;;;;4.20;100.00;99583.66;5053516;28;20056;-74
2024/01/05 11:45:42;;;;;;;17.48;7.93;;;;;;;4.25;100.00;99571.19;5050063;28;20052;-74
2024/01/05 11:48:34;;;;;;;15.30;6.75;;;;;;;4.25;100.00;99580.84;5044572;28;20076;-71
2024/01/05 11:51:19;;;;;;;14.38;7.13;;;;;;;4.25;100.00;99571.19;5049562;28;20041;-73
2024/01/05 11:54:05;;;;;;;12.75;6.53;;;;;;;4.25;100.00;99578.22;5054200;28;20036;-74
2024/01/05 11:56:54;;;;;;;15.15;7.15;;;;;;;4.25;100.00;99573.81;5053237;28;20063;-73
2024/01/05 11:59:40;;;;;;;16.92;7.43;;;;;;;4.26;100.00;99572.06;5026523;28;20319;-73
2024/01/05 12:02:26;;;;;;;18.30;7.78;;;;;;;4.29;100.00;99577.19;5058024;28;20045;-73
2024/01/05 12:09:01;;;;;;;15.57;7.40;;;;;;;4.32;100.00;99577.06;4997192;28;20033;-73
2024/01/05 12:11:47;;;;;;;19.23;7.45;;;;;;;4.33;100.00;99573.53;5045776;28;20124;-73
2024/01/05 12:14:33;;;;;;;16.95;8.13;;;;;;;4.34;100.00;99570.00;5054286;28;20518;-72
2024/01/05 12:17:19;;;;;;;16.58;7.80;;;;;;;4.33;100.00;99568.28;5055821;28;20145;-73
2024/01/05 12:20:11;;;;;;;17.98;8.05;;;;;;;4.32;100.00;99571.84;5054097;28;20123;-72
2024/01/05 12:22:57;;;;;;;18.58;9.15;;;;;;;4.34;100.00;99572.63;5052862;28;20059;-72
2024/01/05 12:25:43;;;;;;;17.65;8.73;;;;;;;4.36;100.00;99568.16;5053717;28;20072;-73
2024/01/05 12:28:30;;;;;;;17.85;8.70;;;;;;;4.38;100.00;99558.47;5049868;28;20063;-72
2024/01/05 12:31:16;;;;;;;19.92;8.07;;;;;;;4.39;100.00;99560.19;5040310;28;20052;-72
2024/01/05 12:34:03;;;;;;;14.00;7.80;;;;;;;4.38;100.00;99558.47;5039723;28;20072;-73
2024/01/05 12:36:54;;;;;;;17.27;7.57;;;;;;;4.38;100.00;99561.09;5056956;28;20041;-72
2024/01/05 12:39:40;;;;;;;17.48;7.47;;;;;;;4.38;100.00;99566.34;5054139;28;20487;-72
2024/01/05 12:42:26;;;;;;;16.58;7.90;;;;;;;4.37;100.00;99566.41;5053453;28;20292;-72
2024/01/05 12:45:12;;;;;;;15.40;7.47;;;;;;;4.38;100.00;99566.34;5054339;28;20032;-72
2024/01/05 12:48:09;;;;;;;16.48;7.22;;;;;;;4.40;100.00;99568.91;5054869;28;20653;-72
2024/01/05 12:51:15;;;;;;;15.23;7.03;;;;;;;4.43;100.00;99574.88;5043663;28;20052;-73
2024/01/05 12:54:02;;;;;;;17.33;7.68;;;;;;;4.44;100.00;99575.72;5051976;28;20040;-73
2024/01/05 12:56:50;;;;;;;16.20;8.02;;;;;;;4.42;100.00;99577.56;5052505;28;20040;-73
2024/01/05 12:59:36;;;;;;;15.02;8.07;;;;;;;4.43;100.00;99579.25;5056571;28;20082;-72
2024/01/05 13:02:22;;;;;;;14.90;7.32;;;;;;;4.44;100.00;99576.59;5056245;28;20056;-73